Time;durP1;ratioP1;P1;durP2;ratioP2;P2;SDS_P1;SDS_P2;PMS_P1;PMS_P2;Temp;Humidity;BMP_temperature;BMP_pressure;BME280_temperature;BME280_humidity;BME280_pressure;Samples;Min_cycle;Max_cycle;Signal;HPM_P1;HPM_P2
2023/11/26 00:02:04;;;;;;;3.97;1.23;;;1.00;99.90;0.60;99769.00;;;;4950059;28;87728;-71
2023/11/26 00:04:30;;;;;;;2.57;1.17;;;1.00;99.90;0.70;99763.00;;;;4949288;28;88667;-70
2023/11/26 00:06:56;;;;;;;1.90;1.17;;;0.90;99.90;0.60;99774.00;;;;4953312;28;108217;-68
2023/11/26 00:09:23;;;;;;;1.00;0.87;;;1.00;99.90;0.70;99774.00;;;;4949731;28;88508;-69
2023/11/26 00:11:49;;;;;;;1.20;0.97;;;1.00;99.90;0.70;99768.00;;;;4954466;28;87925;-69
2023/11/26 00:14:15;;;;;;;1.00;0.90;;;1.00;99.90;0.70;99769.00;;;;4953503;28;88141;-70
2023/11/26 00:16:41;;;;;;;2.83;1.20;;;1.10;99.90;0.70;99763.00;;;;4947817;28;109714;-70
2023/11/26 00:19:07;;;;;;;0.93;0.93;;;1.00;99.90;0.70;99771.00;;;;4956123;28;89647;-69
2023/11/26 00:21:33;;;;;;;2.07;1.30;;;1.00;99.90;0.70;99774.00;;;;4954869;28;87162;-69
2023/11/26 00:23:59;;;;;;;1.53;1.10;;;1.00;99.90;0.70;99782.00;;;;4954795;28;107317;-68
2023/11/26 00:26:26;;;;;;;0.97;0.87;;;1.00;99.90;0.70;99785.00;;;;4939325;28;97687;-69
2023/11/26 00:28:54;;;;;;;1.17;0.90;;;1.00;99.90;0.70;99788.00;;;;4955692;28;98300;-68
2023/11/26 00:31:20;;;;;;;8.40;1.13;;;1.10;99.90;0.70;99784.00;;;;4947501;28;100919;-68
2023/11/26 00:33:48;;;;;;;0.77;0.70;;;1.00;99.90;0.70;99778.00;;;;4952983;28;88034;-69
2023/11/26 00:36:19;;;;;;;1.77;0.90;;;1.00;99.90;0.70;99785.00;;;;4954315;28;89051;-69
2023/11/26 00:38:46;;;;;;;1.43;0.93;;;1.10;99.90;0.70;99788.00;;;;4950287;28;88392;-69
2023/11/26 00:41:16;;;;;;;2.20;1.00;;;1.00;99.90;0.70;99795.00;;;;4954156;28;100584;-69
2023/11/26 00:43:43;;;;;;;1.70;1.00;;;0.90;99.90;0.70;99788.00;;;;4956152;28;88139;-70
2023/11/26 00:46:10;;;;;;;1.23;1.03;;;1.00;99.90;0.70;99796.00;;;;4952361;28;87174;-69
2023/11/26 00:48:37;;;;;;;0.87;0.87;;;1.00;99.90;0.70;99796.00;;;;4958236;28;94511;-70
2023/11/26 00:51:04;;;;;;;1.27;1.00;;;1.00;99.90;0.60;99806.00;;;;4956969;28;87780;-70
2023/11/26 00:53:32;;;;;;;0.80;0.80;;;1.00;99.90;0.60;99826.00;;;;4952358;28;88706;-71
2023/11/26 00:55:58;;;;;;;2.17;1.30;;;0.90;99.90;0.60;99828.00;;;;4952565;28;87920;-69
2023/11/26 00:58:24;;;;;;;0.90;0.90;;;0.90;99.90;0.60;99831.00;;;;4949599;28;88801;-73
2023/11/26 01:00:49;;;;;;;1.70;1.00;;;1.00;99.90;0.60;99837.00;;;;4950345;28;109467;-69
2023/11/26 01:03:15;;;;;;;1.20;1.10;;;0.90;99.90;0.60;99841.00;;;;4950952;28;87966;-72
2023/11/26 01:05:41;;;;;;;2.00;1.13;;;1.10;99.90;0.60;99846.00;;;;4953230;28;88021;-69
2023/11/26 01:08:07;;;;;;;1.07;0.80;;;1.00;99.90;0.70;99841.00;;;;4952309;28;88164;-72
2023/11/26 01:10:32;;;;;;;1.37;0.80;;;1.10;99.90;0.70;99837.00;;;;4944807;28;110608;-70
2023/11/26 01:12:59;;;;;;;0.57;0.57;;;1.00;99.90;0.70;99823.00;;;;4955526;28;109099;-69
2023/11/26 01:15:24;;;;;;;2.00;1.10;;;1.10;99.90;0.70;99832.00;;;;4952612;28;88314;-70
2023/11/26 01:17:50;;;;;;;1.17;0.90;;;1.00;99.90;0.70;99836.00;;;;4948330;28;118001;-73
2023/11/26 01:20:16;;;;;;;2.03;1.20;;;1.00;99.90;0.60;99840.00;;;;4951483;28;110859;-73
2023/11/26 01:22:42;;;;;;;0.57;0.57;;;0.90;99.90;0.60;99844.00;;;;4953840;28;88719;-72
2023/11/26 01:25:08;;;;;;;0.90;0.80;;;1.90;99.90;0.60;99840.00;;;;4950063;28;87694;-74
2023/11/26 01:27:34;;;;;;;0.90;0.53;;;1.00;99.90;0.60;99843.00;;;;4950140;28;108557;-71
2023/11/26 01:29:59;;;;;;;1.17;0.63;;;0.90;99.90;0.60;99836.00;;;;4949907;28;110342;-73
2023/11/26 01:32:26;;;;;;;0.57;0.57;;;0.90;99.90;0.60;99844.00;;;;4953934;28;109303;-73
2023/11/26 01:34:52;;;;;;;0.47;0.47;;;0.90;99.90;0.60;99853.00;;;;4952841;28;92500;-73
2023/11/26 01:37:18;;;;;;;1.50;1.10;;;0.90;99.90;0.60;99851.00;;;;4952585;28;87739;-72
2023/11/26 01:39:44;;;;;;;1.30;1.00;;;1.00;99.90;0.60;99847.00;;;;4948025;28;87923;-72
2023/11/26 01:42:10;;;;;;;0.60;0.60;;;0.90;99.90;0.60;99857.00;;;;4956584;28;89037;-69
2023/11/26 01:44:36;;;;;;;1.53;1.00;;;0.90;99.90;0.60;99863.00;;;;4957684;28;88023;-73
2023/11/26 01:47:05;;;;;;;0.60;0.60;;;0.90;99.90;0.60;99869.00;;;;4952072;28;89039;-72
2023/11/26 01:49:31;;;;;;;0.63;0.63;;;0.90;99.90;0.60;99874.00;;;;4952675;28;87826;-70
2023/11/26 01:52:00;;;;;;;1.23;0.80;;;1.70;99.90;0.60;99872.00;;;;4954587;28;91557;-73
2023/11/26 01:54:29;;;;;;;1.27;0.80;;;0.90;99.90;0.60;99871.00;;;;4952713;28;88330;-70
2023/11/26 01:56:56;;;;;;;1.17;0.83;;;1.00;99.90;0.60;99873.00;;;;4955101;28;88148;-71
2023/11/26 01:59:22;;;;;;;1.40;1.07;;;0.90;99.90;0.60;99874.00;;;;4949369;28;88819;-70
2023/11/26 02:01:48;;;;;;;1.10;1.00;;;1.00;99.90;0.60;99876.00;;;;4954919;28;97065;-72
2023/11/26 02:04:13;;;;;;;1.03;0.90;;;0.90;99.90;0.60;99881.00;;;;4951832;28;116817;-72
2023/11/26 02:06:39;;;;;;;2.23;1.37;;;1.10;99.90;0.60;99880.00;;;;4949967;28;117528;-71
2023/11/26 02:09:07;;;;;;;2.17;1.20;;;0.90;99.90;0.60;99884.00;;;;4949405;28;109964;-72
2023/11/26 02:11:33;;;;;;;2.53;1.47;;;1.00;99.90;0.60;99876.00;;;;4952760;28;88156;-70
2023/11/26 02:13:59;;;;;;;0.80;0.80;;;0.90;99.90;0.60;99870.00;;;;4946614;28;115633;-73
2023/11/26 02:16:25;;;;;;;0.63;0.63;;;0.90;99.90;0.60;99873.00;;;;4954268;28;88097;-71
2023/11/26 02:18:50;;;;;;;1.07;0.73;;;0.90;99.90;0.60;99873.00;;;;4946942;28;91050;-73
2023/11/26 02:21:16;;;;;;;1.50;0.53;;;0.80;99.90;0.50;99875.00;;;;4951938;28;109273;-70
2023/11/26 02:23:45;;;;;;;1.20;0.87;;;0.80;99.90;0.50;99882.00;;;;4949302;28;88116;-71
2023/11/26 02:26:11;;;;;;;1.07;0.67;;;0.80;99.90;0.40;99870.00;;;;4946910;28;99764;-71
2023/11/26 02:28:42;;;;;;;1.70;0.73;;;0.80;99.90;0.40;99872.00;;;;4945810;28;112090;-71
2023/11/26 02:31:10;;;;;;;6.33;1.10;;;0.80;99.90;0.30;99880.00;;;;4951067;28;88988;-71
2023/11/26 02:33:37;;;;;;;1.20;0.97;;;0.60;99.90;0.30;99884.00;;;;4952074;28;88380;-73
2023/11/26 02:36:07;;;;;;;0.83;0.83;;;0.60;99.90;0.30;99879.00;;;;4949864;28;88283;-75
2023/11/26 02:38:33;;;;;;;0.47;0.47;;;0.60;99.90;0.30;99890.00;;;;4948971;28;87927;-73
2023/11/26 02:40:59;;;;;;;0.80;0.80;;;0.60;99.90;0.30;99883.00;;;;4948541;28;87701;-73
2023/11/26 02:43:24;;;;;;;1.00;0.60;;;0.60;99.90;0.30;99884.00;;;;4935238;28;120285;-71
2023/11/26 02:45:56;;;;;;;0.50;0.50;;;1.50;99.90;0.20;99886.00;;;;4949510;28;117944;-73
2023/11/26 02:48:24;;;;;;;0.90;0.73;;;0.60;99.90;0.20;99898.00;;;;4948118;28;87086;-73
2023/11/26 02:50:50;;;;;;;0.83;0.77;;;0.60;99.90;0.30;99891.00;;;;4963882;28;87690;-73
2023/11/26 02:53:16;;;;;;;0.77;0.57;;;0.60;99.90;0.20;99902.00;;;;4950114;28;88491;-73
2023/11/26 02:55:42;;;;;;;0.50;0.50;;;0.20;99.90;0.20;99901.00;;;;4938805;28;116319;-73
2023/11/26 02:58:11;;;;;;;0.87;0.57;;;0.60;99.90;0.20;99910.00;;;;4949370;28;110682;-73
2023/11/26 03:00:37;;;;;;;0.77;0.70;;;0.60;99.90;0.20;99907.00;;;;4952270;28;88120;-73
2023/11/26 03:03:03;;;;;;;0.80;0.80;;;0.60;99.90;0.20;99912.00;;;;4947565;28;117605;-72
2023/11/26 03:05:29;;;;;;;0.77;0.60;;;0.50;99.90;0.20;99912.00;;;;4933401;28;90394;-72
2023/11/26 03:08:08;;;;;;;0.70;0.70;;;0.50;99.90;0.20;99917.00;;;;4936589;28;87932;-71
2023/11/26 03:13:22;;;;;;;0.80;0.80;;;0.50;99.90;0.20;99925.00;;;;4948720;28;86986;-71
2023/11/26 03:15:52;;;;;;;0.50;0.50;;;0.50;99.90;0.20;99930.00;;;;4951335;28;89997;-71
2023/11/26 03:18:17;;;;;;;0.47;0.47;;;2.10;99.90;0.10;99931.00;;;;4950289;28;88041;-71
2023/11/26 03:20:45;;;;;;;0.63;0.63;;;0.50;99.90;0.20;99921.00;;;;4947859;28;108916;-71
2023/11/26 03:23:11;;;;;;;0.60;0.60;;;0.50;99.90;0.20;99921.00;;;;4946102;28;87982;-71
2023/11/26 03:25:38;;;;;;;1.43;0.83;;;0.50;99.90;0.20;99927.00;;;;4947577;28;87896;-75
2023/11/26 03:28:08;;;;;;;0.83;0.63;;;0.60;99.90;0.20;99925.00;;;;4946775;28;89146;-74
2023/11/26 03:30:34;;;;;;;2.53;0.70;;;0.60;99.90;0.20;99929.00;;;;4930702;28;87974;-72
2023/11/26 03:33:00;;;;;;;1.43;1.17;;;0.60;99.90;0.20;99923.00;;;;4952940;28;90149;-74
2023/11/26 03:35:26;;;;;;;1.40;1.13;;;0.90;99.90;0.30;99932.00;;;;4947208;28;117291;-71
2023/11/26 03:37:53;;;;;;;0.83;0.80;;;0.70;99.90;0.30;99931.00;;;;4951353;28;87117;-71
2023/11/26 03:40:20;;;;;;;2.00;1.10;;;0.70;99.90;0.30;99932.00;;;;4950015;28;87893;-70
2023/11/26 03:42:49;;;;;;;3.17;1.53;;;0.60;99.90;0.40;99943.00;;;;4950577;28;88100;-70
2023/11/26 03:45:15;;;;;;;1.10;1.00;;;0.60;99.90;0.40;99934.00;;;;4948426;28;88841;-71
2023/11/26 03:47:41;;;;;;;0.77;0.77;;;0.80;99.90;0.40;99948.00;;;;4951390;28;87854;-72
2023/11/26 03:50:10;;;;;;;1.63;1.33;;;0.70;99.90;0.40;99954.00;;;;4949583;28;87972;-71
2023/11/26 03:52:38;;;;;;;1.40;1.30;;;0.80;99.90;0.40;99946.00;;;;4953524;28;87834;-72
2023/11/26 03:55:05;;;;;;;0.93;0.90;;;0.70;99.90;0.50;99955.00;;;;4952589;28;87751;-70
2023/11/26 03:57:30;;;;;;;1.33;0.90;;;0.80;99.90;0.50;99963.00;;;;4954555;28;88060;-71
2023/11/26 03:59:57;;;;;;;1.20;1.00;;;0.80;99.90;0.50;99961.00;;;;4951459;28;108500;-71
2023/11/26 04:02:23;;;;;;;1.40;1.30;;;0.90;99.90;0.50;99964.00;;;;4954660;28;87792;-71
2023/11/26 04:04:51;;;;;;;1.63;0.80;;;0.80;99.90;0.50;99966.00;;;;4957389;28;88821;-72
2023/11/26 04:07:20;;;;;;;1.07;0.73;;;0.80;99.90;0.50;99961.00;;;;4954632;28;88703;-72
2023/11/26 04:09:47;;;;;;;4.57;1.67;;;0.80;99.90;0.40;99976.00;;;;4951612;28;88732;-73
2023/11/26 04:12:13;;;;;;;2.37;1.20;;;0.90;99.90;0.50;99977.00;;;;4951437;28;108854;-76
2023/11/26 04:14:53;;;;;;;1.90;1.17;;;0.70;99.90;0.40;99975.00;;;;4951866;28;117429;-72
2023/11/26 04:17:19;;;;;;;1.47;1.10;;;0.80;99.90;0.40;99977.00;;;;4948465;28;87944;-72
2023/11/26 04:19:45;;;;;;;1.53;1.20;;;0.80;99.90;0.40;99976.00;;;;4953916;28;87974;-74
2023/11/26 04:22:10;;;;;;;0.70;0.70;;;0.80;99.90;0.40;99985.00;;;;4951242;28;117774;-72
2023/11/26 04:24:36;;;;;;;0.77;0.77;;;0.80;99.90;0.40;99984.00;;;;4951282;28;108112;-72
2023/11/26 04:27:02;;;;;;;1.50;1.20;;;0.90;99.90;0.40;99981.00;;;;4949303;28;87336;-72
2023/11/26 04:29:28;;;;;;;1.07;0.73;;;0.80;99.90;0.50;99987.00;;;;4952460;28;88168;-73
2023/11/26 04:31:54;;;;;;;0.73;0.60;;;0.80;99.90;0.50;99985.00;;;;4949550;28;115950;-71
2023/11/26 04:34:19;;;;;;;1.57;1.03;;;0.70;99.90;0.50;100000.00;;;;4947676;28;118025;-72
2023/11/26 04:36:45;;;;;;;1.53;1.00;;;0.90;99.90;0.50;99995.00;;;;4955952;28;111348;-71
2023/11/26 04:39:11;;;;;;;1.07;1.00;;;0.80;99.90;0.50;99993.00;;;;4951050;28;87942;-71
2023/11/26 04:41:37;;;;;;;1.53;0.77;;;0.80;99.90;0.60;100009.00;;;;4950159;28;89118;-71
2023/11/26 04:44:03;;;;;;;2.20;1.60;;;0.90;99.90;0.60;100006.00;;;;4952085;28;115209;-71
2023/11/26 04:46:29;;;;;;;1.33;1.07;;;0.90;99.90;0.60;100004.00;;;;4951811;28;87918;-71
2023/11/26 04:48:54;;;;;;;0.97;0.87;;;0.90;99.90;0.60;100000.00;;;;4952790;28;109170;-71
2023/11/26 04:51:21;;;;;;;1.30;0.67;;;1.00;99.90;0.60;100007.00;;;;4949094;28;117504;-71
2023/11/26 04:53:50;;;;;;;1.07;0.93;;;1.80;99.90;0.60;99998.00;;;;4950662;28;88988;-70
2023/11/26 04:56:18;;;;;;;1.07;1.07;;;1.00;99.90;0.60;99995.00;;;;4952759;28;87826;-71
2023/11/26 04:58:45;;;;;;;0.90;0.90;;;1.10;99.90;0.60;100002.00;;;;4945769;28;88777;-70
2023/11/26 05:01:15;;;;;;;1.33;1.00;;;1.90;99.90;0.50;100012.00;;;;4955631;28;109986;-71
2023/11/26 05:03:41;;;;;;;0.97;0.97;;;0.90;99.90;0.60;100007.00;;;;4947164;28;88754;-71
2023/11/26 05:06:07;;;;;;;0.80;0.70;;;0.90;99.90;0.50;100000.00;;;;4952530;28;108896;-71
2023/11/26 05:08:33;;;;;;;0.87;0.73;;;0.90;99.90;0.60;100007.00;;;;4957733;28;91156;-71
2023/11/26 05:11:01;;;;;;;0.97;0.87;;;0.90;99.90;0.50;100017.00;;;;4948781;28;115813;-71
2023/11/26 05:13:27;;;;;;;0.77;0.77;;;0.90;99.90;0.50;100008.00;;;;4953577;28;88044;-72
2023/11/26 05:15:56;;;;;;;0.60;0.60;;;0.80;99.90;0.50;100015.00;;;;4955179;28;98192;-71
2023/11/26 05:18:22;;;;;;;1.43;1.17;;;1.00;99.90;0.50;100025.00;;;;4951877;28;102867;-71
2023/11/26 05:20:48;;;;;;;1.13;0.90;;;0.80;99.90;0.50;100025.00;;;;4953777;28;118143;-71
2023/11/26 05:23:14;;;;;;;1.17;1.07;;;0.70;99.90;0.40;100032.00;;;;4953573;28;88906;-71
2023/11/26 05:25:40;;;;;;;2.20;1.10;;;0.80;99.90;0.40;100019.00;;;;4951445;28;111147;-71
2023/11/26 05:28:06;;;;;;;1.20;1.00;;;0.70;99.90;0.30;100031.00;;;;4953242;28;108327;-70
2023/11/26 05:30:31;;;;;;;1.03;0.87;;;0.70;99.90;0.30;100038.00;;;;4955139;28;117473;-71
2023/11/26 05:32:57;;;;;;;0.83;0.73;;;0.60;99.90;0.30;100034.00;;;;4950744;28;115514;-71
2023/11/26 05:35:27;;;;;;;1.30;0.90;;;0.80;99.90;0.30;100039.00;;;;4954664;28;109690;-71
2023/11/26 05:37:54;;;;;;;1.50;0.80;;;0.70;99.90;0.30;100036.00;;;;4953111;28;87702;-72
2023/11/26 05:40:20;;;;;;;1.17;0.90;;;1.30;99.90;0.30;100046.00;;;;4957021;28;87293;-71
2023/11/26 05:42:46;;;;;;;0.83;0.73;;;0.60;99.90;0.20;100052.00;;;;4956174;28;87766;-70
2023/11/26 05:45:12;;;;;;;1.23;0.70;;;0.70;99.90;0.20;100052.00;;;;4954508;28;88529;-71
2023/11/26 05:47:38;;;;;;;5.77;1.10;;;0.60;99.90;0.20;100042.00;;;;4951534;28;108778;-71
2023/11/26 05:50:04;;;;;;;0.93;0.73;;;0.60;99.90;0.20;100049.00;;;;4957427;28;87947;-71
2023/11/26 05:52:30;;;;;;;1.53;0.97;;;0.60;99.90;0.20;100057.00;;;;4952603;28;89006;-71
2023/11/26 05:54:55;;;;;;;0.80;0.80;;;0.60;99.90;0.20;100059.00;;;;4951109;28;110582;-71
2023/11/26 05:57:21;;;;;;;0.97;0.87;;;0.60;99.90;0.20;100047.00;;;;4952252;28;108376;-72
2023/11/26 05:59:47;;;;;;;1.10;1.00;;;0.60;99.90;0.20;100043.00;;;;4948611;28;88040;-71
2023/11/26 06:02:13;;;;;;;0.80;0.77;;;0.50;99.90;0.20;100061.00;;;;4947224;28;88659;-71
2023/11/26 06:04:39;;;;;;;1.63;0.80;;;0.50;99.90;0.10;100050.00;;;;4946159;28;109778;-71
2023/11/26 06:07:05;;;;;;;1.33;1.10;;;0.80;99.90;0.10;100060.00;;;;4950344;28;108900;-71
2023/11/26 06:09:32;;;;;;;2.20;0.90;;;0.40;99.90;0.10;100054.00;;;;4952340;28;89206;-71
2023/11/26 06:11:57;;;;;;;1.10;1.00;;;0.50;99.90;0.10;100049.00;;;;4950644;28;93121;-72
2023/11/26 06:14:24;;;;;;;1.23;0.87;;;0.40;99.90;0.10;100059.00;;;;4949006;28;110824;-70
2023/11/26 06:16:50;;;;;;;1.50;1.27;;;0.50;99.90;0.00;100046.00;;;;4953391;28;108710;-71
2023/11/26 06:19:16;;;;;;;0.93;0.80;;;0.50;99.90;0.10;100056.00;;;;4947282;28;88500;-71
2023/11/26 06:21:42;;;;;;;1.43;1.23;;;0.50;99.90;0.10;100059.00;;;;4944273;28;88125;-71
2023/11/26 06:24:09;;;;;;;1.43;1.00;;;0.40;99.90;0.10;100058.00;;;;4949572;28;101809;-71
2023/11/26 06:26:35;;;;;;;2.53;1.10;;;0.40;99.90;0.00;100059.00;;;;4952173;28;87973;-72
2023/11/26 06:29:01;;;;;;;1.30;1.17;;;0.50;99.90;0.00;100061.00;;;;4950393;28;87679;-72
2023/11/26 06:31:29;;;;;;;1.47;1.03;;;0.40;99.90;0.00;100070.00;;;;4947652;28;108015;-71
2023/11/26 06:33:56;;;;;;;1.23;1.13;;;0.40;99.90;0.00;100075.00;;;;4947591;28;88240;-71
2023/11/26 06:36:23;;;;;;;1.80;1.07;;;0.50;99.90;0.00;100075.00;;;;4948907;28;88820;-72
2023/11/26 06:38:51;;;;;;;2.37;1.07;;;0.40;99.90;0.10;100064.00;;;;4948964;28;88840;-71
2023/11/26 06:41:38;;;;;;;1.57;1.10;;;0.50;99.90;0.00;100080.00;;;;4950100;28;106015;-72
2023/11/26 06:44:04;;;;;;;4.40;3.27;;;0.50;99.90;0.00;100079.00;;;;4951781;28;88546;-72
2023/11/26 06:46:30;;;;;;;1.33;0.80;;;1.60;99.90;0.00;100081.00;;;;4944963;28;107656;-72
2023/11/26 06:48:56;;;;;;;2.07;0.90;;;0.40;99.90;0.10;100081.00;;;;4949329;28;88311;-72
2023/11/26 06:51:22;;;;;;;1.30;1.03;;;0.30;99.90;0.00;100084.00;;;;4944955;28;117598;-72
2023/11/26 06:53:52;;;;;;;2.20;1.00;;;0.50;99.90;0.00;100084.00;;;;4945331;28;87168;-72
2023/11/26 06:56:18;;;;;;;1.37;0.83;;;0.40;99.90;0.00;100085.00;;;;4946823;28;88068;-72
2023/11/26 06:58:46;;;;;;;1.67;1.10;;;0.40;99.90;0.00;100086.00;;;;4946942;28;118551;-71
2023/11/26 07:01:13;;;;;;;2.27;1.10;;;0.60;99.90;0.00;100096.00;;;;4945076;28;89099;-71
2023/11/26 07:03:39;;;;;;;1.77;1.40;;;0.40;99.90;0.00;100094.00;;;;4949887;28;87964;-73
2023/11/26 07:06:10;;;;;;;1.97;1.73;;;1.30;99.90;0.00;100094.00;;;;4946791;28;87875;-72
2023/11/26 07:08:37;;;;;;;1.57;1.30;;;0.30;99.90;0.00;100093.00;;;;4939197;28;88007;-72
2023/11/26 07:11:24;;;;;;;2.93;1.00;;;1.30;99.90;0.00;100096.00;;;;4945743;28;88256;-72
2023/11/26 07:13:51;;;;;;;2.20;1.43;;;0.30;99.90;0.00;100107.00;;;;4941294;28;87819;-72
2023/11/26 07:16:18;;;;;;;1.63;1.50;;;0.30;99.90;0.00;100114.00;;;;4947963;28;102146;-73
2023/11/26 07:18:45;;;;;;;3.03;1.67;;;0.40;99.90;0.00;100119.00;;;;4945249;28;89019;-72
2023/11/26 07:21:11;;;;;;;2.30;1.30;;;0.40;99.90;0.10;100122.00;;;;4942910;28;87923;-73
2023/11/26 07:23:39;;;;;;;10.47;1.50;;;0.40;99.90;0.10;100121.00;;;;4943933;28;88920;-72
2023/11/26 07:26:12;;;;;;;2.47;1.40;;;1.00;99.90;0.10;100131.00;;;;4950964;28;89109;-72
2023/11/26 07:28:42;;;;;;;1.67;1.03;;;0.40;99.90;0.20;100128.00;;;;4948541;28;89351;-72
2023/11/26 07:31:33;;;;;;;1.70;1.47;;;0.40;99.90;0.20;100130.00;;;;4949170;28;94519;-72
2023/11/26 07:33:59;;;;;;;2.07;1.30;;;0.30;99.90;0.20;100132.00;;;;4946840;28;109620;-72
2023/11/26 07:36:26;;;;;;;1.50;1.13;;;0.60;99.90;0.20;100129.00;;;;4949219;28;88298;-72
2023/11/26 07:38:58;;;;;;;1.80;1.23;;;0.60;99.90;0.20;100136.00;;;;4950338;28;89046;-73
2023/11/26 07:41:25;;;;;;;1.10;1.00;;;0.60;99.90;0.20;100137.00;;;;4948837;28;87932;-72
2023/11/26 07:43:52;;;;;;;1.50;1.40;;;0.70;99.90;0.30;100139.00;;;;4950309;28;101671;-72
2023/11/26 07:46:19;;;;;;;2.27;1.30;;;0.60;99.90;0.30;100147.00;;;;4954270;28;88057;-72
2023/11/26 07:48:48;;;;;;;1.73;1.33;;;0.60;99.90;0.30;100136.00;;;;4954510;28;88291;-72
2023/11/26 07:51:14;;;;;;;2.00;1.20;;;0.60;99.90;0.30;100140.00;;;;4950962;28;90493;-72
2023/11/26 07:53:40;;;;;;;1.60;1.20;;;0.60;99.90;0.30;100147.00;;;;4950312;28;111027;-71
2023/11/26 07:56:07;;;;;;;2.07;1.57;;;0.80;99.90;0.40;100141.00;;;;4951549;28;88136;-71
2023/11/26 07:58:34;;;;;;;4.70;2.00;;;0.80;99.90;0.40;100140.00;;;;4949143;28;87971;-71
2023/11/26 08:01:03;;;;;;;3.10;1.53;;;0.70;99.90;0.50;100145.00;;;;4951560;28;88618;-71
2023/11/26 08:03:32;;;;;;;3.10;2.60;;;0.80;99.90;0.50;100147.00;;;;4948370;28;88039;-70
2023/11/26 08:05:58;;;;;;;1.30;1.13;;;1.90;99.90;0.60;100155.00;;;;4946111;28;88004;-71
2023/11/26 08:08:25;;;;;;;2.30;1.57;;;1.00;99.90;0.70;100148.00;;;;4947424;28;87800;-70
2023/11/26 08:10:52;;;;;;;1.13;1.03;;;1.00;99.90;0.80;100156.00;;;;4948344;28;87976;-71
2023/11/26 08:13:22;;;;;;;1.30;1.20;;;1.20;99.90;0.90;100158.00;;;;4948356;28;88411;-69
2023/11/26 08:15:56;;;;;;;1.73;1.33;;;1.20;99.90;0.90;100154.00;;;;4947021;28;89045;-70
2023/11/26 08:18:22;;;;;;;0.50;0.50;;;1.20;99.90;1.00;100155.00;;;;4947990;28;88111;-70
2023/11/26 08:20:49;;;;;;;1.87;1.57;;;1.40;99.90;1.00;100153.00;;;;4947709;28;108804;-70
2023/11/26 08:23:14;;;;;;;1.10;1.03;;;1.30;99.90;1.00;100164.00;;;;4946828;28;88403;-71
2023/11/26 08:25:40;;;;;;;1.83;1.53;;;1.90;99.90;1.00;100160.00;;;;4950898;28;88073;-71
2023/11/26 08:28:07;;;;;;;1.70;1.27;;;1.30;99.90;1.10;100154.00;;;;4947521;28;88678;-70
2023/11/26 08:30:41;;;;;;;1.50;1.40;;;1.30;99.90;1.10;100164.00;;;;4947501;28;88153;-71
2023/11/26 08:33:07;;;;;;;2.03;1.60;;;1.40;99.90;1.10;100168.00;;;;4950412;28;87203;-70
2023/11/26 08:35:33;;;;;;;1.30;1.20;;;1.40;99.90;1.10;100175.00;;;;4947987;28;87701;-70
2023/11/26 08:38:05;;;;;;;2.77;1.70;;;1.40;99.90;1.00;100182.00;;;;4945499;28;98035;-71
2023/11/26 08:40:34;;;;;;;1.20;1.03;;;1.40;99.90;1.00;100175.00;;;;4946380;28;88908;-70
2023/11/26 08:43:04;;;;;;;2.00;1.63;;;1.40;99.90;1.00;100168.00;;;;4947140;28;88106;-70
2023/11/26 08:45:30;;;;;;;1.97;1.53;;;1.40;99.90;1.00;100167.00;;;;4945940;28;87954;-71
2023/11/26 08:47:57;;;;;;;2.63;1.50;;;2.10;99.90;1.10;100176.00;;;;4947252;28;88708;-71
2023/11/26 08:50:24;;;;;;;1.80;1.40;;;1.50;99.90;1.10;100167.00;;;;4933463;28;87877;-71
2023/11/26 08:52:53;;;;;;;1.77;1.50;;;1.40;99.90;1.10;100176.00;;;;4943804;28;88170;-71
2023/11/26 08:55:20;;;;;;;2.53;1.40;;;1.40;99.90;1.10;100174.00;;;;4946586;28;88113;-71
2023/11/26 08:57:46;;;;;;;1.87;1.60;;;1.50;99.90;1.10;100176.00;;;;4947016;28;87701;-71
2023/11/26 09:00:12;;;;;;;2.90;1.47;;;1.50;99.90;1.10;100187.00;;;;4948058;28;89933;-71
2023/11/26 09:02:39;;;;;;;2.27;1.70;;;1.50;99.90;1.10;100170.00;;;;4946737;28;87911;-72
2023/11/26 09:05:09;;;;;;;2.07;1.47;;;2.10;99.90;1.10;100178.00;;;;4930760;28;89049;-71
2023/11/26 09:07:36;;;;;;;1.03;0.93;;;1.30;99.90;1.10;100182.00;;;;4937595;28;89385;-72
2023/11/26 09:10:03;;;;;;;3.03;1.83;;;1.40;99.90;1.40;100171.00;;;;4947634;28;87965;-72
2023/11/26 09:12:29;;;;;;;3.87;1.00;;;1.60;99.90;1.80;100180.00;;;;4948197;28;88077;-71
2023/11/26 09:14:55;;;;;;;3.73;1.70;;;1.90;99.90;2.10;100183.00;;;;4936152;28;87994;-73
2023/11/26 09:17:21;;;;;;;2.03;1.67;;;2.20;99.90;2.30;100191.00;;;;4951636;28;107719;-72
2023/11/26 09:19:48;;;;;;;1.60;1.50;;;2.40;99.90;2.60;100198.00;;;;4946919;28;88368;-73
2023/11/26 09:22:13;;;;;;;1.77;1.67;;;2.70;99.90;2.80;100206.00;;;;4947503;28;101101;-70
2023/11/26 09:24:39;;;;;;;2.33;1.10;;;3.00;99.90;2.90;100205.00;;;;4946253;28;100550;-72
2023/11/26 09:27:05;;;;;;;3.20;2.40;;;3.10;99.90;2.90;100204.00;;;;4946562;28;118608;-70
2023/11/26 09:29:34;;;;;;;2.67;1.80;;;3.20;99.90;2.80;100209.00;;;;4945386;28;89180;-70
2023/11/26 09:32:00;;;;;;;1.83;1.63;;;4.10;99.90;2.70;100220.00;;;;4941986;28;107487;-70
2023/11/26 09:34:26;;;;;;;1.80;1.50;;;3.10;99.90;2.70;100215.00;;;;4945160;28;108142;-72
2023/11/26 09:36:52;;;;;;;1.40;1.30;;;3.00;99.90;3.00;100210.00;;;;4946226;28;116585;-72
2023/11/26 09:39:19;;;;;;;2.97;1.47;;;3.20;99.90;3.30;100198.00;;;;4946576;28;88208;-70
2023/11/26 09:41:45;;;;;;;1.77;1.20;;;3.40;99.90;3.30;100208.00;;;;4947290;28;87927;-71
2023/11/26 09:44:11;;;;;;;1.53;1.27;;;3.60;99.90;3.40;100200.00;;;;4947356;28;88171;-73
2023/11/26 09:46:37;;;;;;;2.10;1.63;;;3.60;99.90;3.40;100214.00;;;;4948583;28;98650;-70
2023/11/26 09:49:03;;;;;;;1.70;1.17;;;3.50;99.90;3.30;100204.00;;;;4944708;28;88345;-72
2023/11/26 09:51:32;;;;;;;1.83;1.13;;;3.60;99.90;3.20;100205.00;;;;4948239;28;87948;-72
2023/11/26 09:53:58;;;;;;;1.80;1.70;;;4.30;99.90;3.10;100207.00;;;;4948028;28;88997;-71
2023/11/26 09:56:25;;;;;;;1.43;1.20;;;3.40;99.90;3.00;100203.00;;;;4942914;28;110741;-71
2023/11/26 09:58:51;;;;;;;4.10;1.93;;;3.30;99.90;2.80;100201.00;;;;4936461;28;117754;-70
2023/11/26 10:01:16;;;;;;;1.00;0.70;;;3.20;99.90;2.60;100204.00;;;;4951399;28;104381;-70
2023/11/26 10:03:55;;;;;;;1.63;1.13;;;2.90;99.90;2.40;100201.00;;;;4948764;28;87970;-72
2023/11/26 10:06:21;;;;;;;2.40;1.77;;;2.80;99.90;2.30;100199.00;;;;4945000;28;88797;-74
2023/11/26 10:08:47;;;;;;;1.27;1.10;;;2.50;99.90;2.20;100192.00;;;;4948389;28;90058;-72
2023/11/26 10:11:23;;;;;;;1.50;1.17;;;2.50;99.90;2.40;100207.00;;;;4945629;28;87266;-75
2023/11/26 10:13:50;;;;;;;0.97;0.93;;;2.60;99.90;2.80;100200.00;;;;4940043;28;87561;-71
2023/11/26 10:16:32;;;;;;;1.57;1.27;;;2.90;99.90;3.10;100186.00;;;;4951740;28;98001;-72
2023/11/26 10:19:00;;;;;;;2.57;1.60;;;3.10;99.90;3.60;100194.00;;;;4942878;28;89247;-72
2023/11/26 10:21:29;;;;;;;1.40;1.30;;;3.60;99.90;4.00;100194.00;;;;4950759;28;88024;-71
2023/11/26 10:23:55;;;;;;;3.00;1.23;;;4.00;99.90;4.50;100183.00;;;;4951629;28;89897;-71
2023/11/26 10:26:26;;;;;;;0.77;0.77;;;4.50;99.90;5.00;100193.00;;;;4944959;28;88951;-72
2023/11/26 10:29:07;;;;;;;1.20;1.10;;;4.90;99.90;5.30;100190.00;;;;4950376;28;88181;-71
2023/11/26 10:31:32;;;;;;;0.57;0.53;;;5.30;99.90;5.20;100191.00;;;;4948291;28;87906;-74
2023/11/26 10:34:10;;;;;;;0.70;0.70;;;5.30;99.90;5.10;100189.00;;;;4948479;28;88153;-70
2023/11/26 10:36:36;;;;;;;1.63;0.93;;;6.00;99.90;4.90;100187.00;;;;4946390;28;87610;-72
2023/11/26 10:39:04;;;;;;;0.80;0.80;;;5.60;99.90;4.60;100200.00;;;;4946812;28;103188;-71
2023/11/26 10:41:35;;;;;;;1.20;0.87;;;4.90;99.90;4.40;100208.00;;;;4944590;28;87905;-69
2023/11/26 10:44:02;;;;;;;1.57;1.20;;;4.70;99.90;4.10;100201.00;;;;4947167;28;99744;-69
2023/11/26 10:46:35;;;;;;;1.17;1.03;;;4.40;99.90;3.90;100198.00;;;;4946195;28;88717;-71
2023/11/26 10:49:33;;;;;;;1.23;1.07;;;4.20;99.90;4.20;100196.00;;;;4944059;28;88997;-72
2023/11/26 10:52:12;;;;;;;1.83;1.00;;;4.40;99.90;4.70;100202.00;;;;4945318;28;87595;-70
2023/11/26 10:54:46;;;;;;;1.27;0.87;;;4.70;99.90;5.20;100204.00;;;;4949373;28;87829;-68
2023/11/26 10:57:19;;;;;;;1.77;1.27;;;5.10;99.90;5.70;100199.00;;;;4943525;28;97278;-68
2023/11/26 10:59:49;;;;;;;1.43;0.70;;;6.00;99.90;6.10;100202.00;;;;4941966;28;108208;-69
2023/11/26 11:02:17;;;;;;;1.80;1.37;;;6.10;99.90;6.40;100193.00;;;;4945429;28;101236;-68
2023/11/26 11:04:48;;;;;;;0.77;0.77;;;6.40;99.90;6.70;100211.00;;;;4948099;28;108813;-70
2023/11/26 11:07:14;;;;;;;1.17;0.87;;;6.70;99.90;6.90;100207.00;;;;4941189;28;88827;-68